Time;durP1;ratioP1;P1;durP2;ratioP2;P2;SDS_P1;SDS_P2;PMS_P1;PMS_P2;Temp;Humidity;BMP_temperature;BMP_pressure;BME280_temperature;BME280_humidity;BME280_pressure;Samples;Min_cycle;Max_cycle;Signal;HPM_P1;HPM_P2
2022/02/13 00:00:54;;;;;;;1.63;0.60;;;7.30;49.60;;;;;;4950845;28;20327;-79
2022/02/13 00:03:20;;;;;;;1.02;0.60;;;7.40;49.70;;;;;;4941284;29;20058;-78
2022/02/13 00:05:46;;;;;;;1.70;0.70;;;7.40;49.80;;;;;;4947767;28;20585;-78
2022/02/13 00:08:12;;;;;;;1.38;0.55;;;7.40;49.80;;;;;;4953822;28;20031;-78
2022/02/13 00:10:38;;;;;;;3.20;1.10;;;7.30;49.90;;;;;;4952149;28;20058;-77
2022/02/13 00:13:05;;;;;;;1.25;0.60;;;7.30;49.90;;;;;;4944353;28;20047;-78
2022/02/13 00:15:31;;;;;;;0.90;0.60;;;7.30;49.90;;;;;;4950027;28;20623;-78
2022/02/13 00:17:57;;;;;;;1.42;0.60;;;7.40;50.10;;;;;;4947818;28;20114;-77
2022/02/13 00:20:23;;;;;;;1.65;0.60;;;7.30;50.10;;;;;;4952075;28;20146;-78
2022/02/13 00:22:49;;;;;;;1.40;0.60;;;7.30;50.10;;;;;;4947622;28;20054;-78
2022/02/13 00:25:16;;;;;;;2.00;1.05;;;7.40;50.20;;;;;;4949417;28;20032;-77
2022/02/13 00:27:45;;;;;;;2.70;1.30;;;7.40;50.80;;;;;;4951144;28;20043;-78
2022/02/13 00:30:13;;;;;;;3.65;1.02;;;7.40;50.30;;;;;;4949902;28;20417;-77
2022/02/13 00:32:40;;;;;;;1.40;0.98;;;7.30;50.30;;;;;;4957650;28;20068;-77
2022/02/13 00:35:07;;;;;;;3.00;0.80;;;7.30;50.40;;;;;;4945131;28;20035;-78
2022/02/13 00:37:33;;;;;;;1.92;0.80;;;7.30;50.40;;;;;;4948163;28;20526;-79
2022/02/13 00:39:59;;;;;;;3.03;0.80;;;7.30;50.40;;;;;;4951428;28;20035;-79
2022/02/13 00:42:25;;;;;;;1.35;0.75;;;7.30;50.50;;;;;;4950863;28;20402;-76
2022/02/13 00:44:51;;;;;;;1.65;0.95;;;7.30;50.60;;;;;;4951061;28;20059;-77
2022/02/13 00:47:17;;;;;;;1.55;0.98;;;7.30;50.60;;;;;;4944569;28;20062;-77
2022/02/13 00:49:43;;;;;;;1.08;0.60;;;7.30;50.60;;;;;;4936798;29;20051;-77
2022/02/13 00:52:09;;;;;;;3.05;0.80;;;7.30;50.70;;;;;;4944697;29;20534;-77
2022/02/13 00:54:35;;;;;;;2.20;0.60;;;7.30;50.70;;;;;;4945020;29;20047;-78
2022/02/13 00:57:02;;;;;;;1.80;1.08;;;7.30;51.40;;;;;;4949144;28;20042;-77
2022/02/13 00:59:28;;;;;;;4.07;1.02;;;7.30;50.90;;;;;;4944927;28;20044;-77
2022/02/13 01:01:57;;;;;;;1.33;0.73;;;7.30;50.90;;;;;;4948583;28;20038;-76
2022/02/13 01:04:23;;;;;;;2.28;0.63;;;7.30;50.90;;;;;;4949547;28;20042;-76
2022/02/13 01:06:49;;;;;;;2.33;1.02;;;7.30;51.00;;;;;;4951153;28;20412;-77
2022/02/13 01:09:15;;;;;;;2.20;0.80;;;7.30;51.00;;;;;;4951524;28;20593;-77
2022/02/13 01:11:41;;;;;;;2.58;0.80;;;7.30;51.00;;;;;;4946223;28;20050;-78
2022/02/13 01:14:07;;;;;;;1.77;0.80;;;7.30;51.10;;;;;;4953425;28;20538;-78
2022/02/13 01:16:34;;;;;;;1.58;0.63;;;7.30;51.20;;;;;;4940431;28;20505;-77
2022/02/13 01:19:00;;;;;;;3.00;0.82;;;7.30;51.20;;;;;;4956671;28;20039;-78
2022/02/13 01:21:29;;;;;;;1.25;0.80;;;7.40;51.30;;;;;;4953114;28;20138;-77
2022/02/13 01:23:55;;;;;;;2.40;0.60;;;7.30;51.30;;;;;;4962989;28;20076;-77
2022/02/13 01:26:23;;;;;;;1.85;0.60;;;7.40;51.50;;;;;;4948690;28;20936;-77
2022/02/13 01:28:50;;;;;;;2.35;0.68;;;7.30;51.50;;;;;;4961953;28;20062;-77
2022/02/13 01:31:16;;;;;;;3.05;0.70;;;7.30;51.50;;;;;;4951791;28;20119;-77
2022/02/13 01:33:42;;;;;;;1.02;0.57;;;7.30;51.60;;;;;;4940596;29;20046;-77
2022/02/13 01:36:09;;;;;;;2.67;0.77;;;7.30;51.60;;;;;;4961733;28;20047;-78
2022/02/13 01:38:36;;;;;;;1.67;0.60;;;7.40;51.70;;;;;;4948121;28;20143;-78
2022/02/13 01:41:02;;;;;;;2.95;0.88;;;7.40;51.80;;;;;;4942591;29;20035;-78
2022/02/13 01:43:28;;;;;;;2.25;0.90;;;7.40;51.80;;;;;;4952482;28;20422;-77
2022/02/13 01:45:55;;;;;;;2.95;0.80;;;7.40;51.80;;;;;;4955064;28;20042;-76
2022/02/13 01:48:21;;;;;;;2.50;0.63;;;7.40;51.90;;;;;;4955237;28;20038;-78
2022/02/13 01:50:51;;;;;;;3.60;1.35;;;7.40;51.90;;;;;;4951959;28;20514;-77
2022/02/13 01:53:18;;;;;;;1.63;0.90;;;7.40;52.00;;;;;;4958796;28;20031;-78
2022/02/13 01:55:48;;;;;;;2.30;0.90;;;7.40;52.00;;;;;;4954294;28;20541;-78
2022/02/13 01:58:15;;;;;;;1.77;0.60;;;7.40;52.10;;;;;;4946724;28;20062;-78
2022/02/13 02:00:41;;;;;;;1.42;0.82;;;7.40;52.10;;;;;;4940796;28;20093;-78
2022/02/13 02:03:07;;;;;;;2.15;0.70;;;7.30;52.10;;;;;;4950157;28;20035;-78
2022/02/13 02:05:34;;;;;;;1.65;0.75;;;7.40;52.20;;;;;;4948955;28;20054;-78
2022/02/13 02:08:00;;;;;;;2.03;0.80;;;7.40;52.20;;;;;;4963665;28;20039;-77
2022/02/13 02:10:26;;;;;;;2.25;1.00;;;7.40;52.30;;;;;;4947021;28;20581;-77
2022/02/13 02:12:52;;;;;;;1.70;0.98;;;7.40;52.30;;;;;;4941251;28;20035;-77
2022/02/13 02:15:18;;;;;;;2.20;0.98;;;7.40;52.40;;;;;;4950920;28;20039;-79
2022/02/13 02:17:44;;;;;;;1.45;0.80;;;7.40;52.40;;;;;;4952979;28;20032;-76
2022/02/13 02:20:12;;;;;;;1.67;0.70;;;7.40;52.40;;;;;;4950658;28;20143;-77
2022/02/13 02:22:45;;;;;;;2.40;0.65;;;7.40;52.50;;;;;;4950423;28;20409;-76
2022/02/13 02:25:10;;;;;;;2.70;0.70;;;7.40;52.50;;;;;;4962270;28;20027;-77
2022/02/13 02:27:36;;;;;;;2.17;0.73;;;7.40;52.60;;;;;;4949030;28;20058;-79
2022/02/13 02:30:04;;;;;;;2.58;0.70;;;7.40;52.60;;;;;;4963633;28;20050;-78
2022/02/13 02:32:29;;;;;;;3.60;0.70;;;7.40;52.70;;;;;;4972847;28;20502;-78
2022/02/13 02:34:55;;;;;;;1.33;0.70;;;7.40;52.70;;;;;;4958494;28;20026;-78
2022/02/13 02:37:21;;;;;;;4.03;0.70;;;7.40;52.70;;;;;;4966581;28;20106;-78
2022/02/13 02:39:47;;;;;;;3.55;0.80;;;7.40;52.80;;;;;;4965989;28;20683;-78
2022/02/13 02:42:14;;;;;;;2.35;0.95;;;7.40;52.80;;;;;;4972841;28;20035;-79
2022/02/13 02:44:40;;;;;;;1.27;0.55;;;7.40;52.80;;;;;;4966960;28;20121;-76
2022/02/13 02:47:06;;;;;;;2.63;0.90;;;7.40;53.50;;;;;;4966022;28;20114;-77
2022/02/13 02:49:32;;;;;;;1.60;0.60;;;7.40;52.90;;;;;;4966045;28;20039;-79
2022/02/13 02:51:58;;;;;;;2.10;0.90;;;7.40;52.90;;;;;;4966298;28;20046;-77
2022/02/13 02:54:23;;;;;;;2.72;0.70;;;7.40;52.90;;;;;;4956182;28;20039;-78
2022/02/13 02:56:49;;;;;;;2.80;0.93;;;7.50;53.00;;;;;;4965587;28;20162;-78
2022/02/13 02:59:15;;;;;;;2.70;0.73;;;7.50;53.00;;;;;;4955307;28;20457;-78
2022/02/13 03:01:41;;;;;;;2.83;0.82;;;7.50;53.00;;;;;;4966544;28;20042;-77
2022/02/13 03:04:07;;;;;;;3.15;1.00;;;7.50;53.10;;;;;;4966249;28;20042;-77
2022/02/13 03:06:33;;;;;;;2.63;1.50;;;7.40;53.00;;;;;;4965088;28;20525;-78
2022/02/13 03:08:59;;;;;;;1.77;0.90;;;7.50;53.00;;;;;;4964423;28;20114;-78
2022/02/13 03:11:28;;;;;;;4.00;0.90;;;7.50;53.10;;;;;;4965200;28;20051;-77
2022/02/13 03:13:54;;;;;;;2.28;1.00;;;7.50;53.10;;;;;;4967499;28;20481;-76
2022/02/13 03:16:21;;;;;;;1.80;0.88;;;7.50;53.20;;;;;;4965370;28;20062;-78
2022/02/13 03:18:47;;;;;;;3.13;0.65;;;7.50;53.10;;;;;;4953803;28;20035;-77
2022/02/13 03:21:13;;;;;;;1.70;0.80;;;7.50;53.10;;;;;;4965787;28;20101;-78
2022/02/13 03:23:39;;;;;;;2.10;1.02;;;7.50;53.10;;;;;;4966202;28;20038;-78
2022/02/13 03:26:05;;;;;;;3.28;1.00;;;7.50;53.10;;;;;;4965653;28;20510;-78
2022/02/13 03:28:31;;;;;;;3.65;1.00;;;7.50;53.10;;;;;;4965390;28;20057;-78
2022/02/13 03:30:57;;;;;;;2.65;1.13;;;7.50;53.20;;;;;;4966681;28;20031;-79
2022/02/13 03:33:24;;;;;;;3.03;1.13;;;7.50;53.20;;;;;;4964537;28;20043;-77
2022/02/13 03:35:50;;;;;;;3.70;1.08;;;7.50;53.20;;;;;;4965513;28;20070;-78
2022/02/13 03:38:16;;;;;;;2.63;1.05;;;7.50;53.20;;;;;;4966795;28;20062;-77
2022/02/13 03:40:42;;;;;;;1.80;0.85;;;7.50;53.20;;;;;;4952852;28;20417;-77
2022/02/13 03:43:08;;;;;;;1.88;0.70;;;7.50;53.20;;;;;;4965465;28;20598;-77
2022/02/13 03:45:34;;;;;;;2.28;0.60;;;7.50;53.30;;;;;;4966806;28;20123;-77
2022/02/13 03:48:00;;;;;;;2.22;0.80;;;7.50;53.20;;;;;;4936001;28;20398;-76
2022/02/13 03:50:27;;;;;;;2.72;1.15;;;7.50;53.20;;;;;;4970036;28;20042;-77
2022/02/13 03:52:53;;;;;;;1.80;0.82;;;7.50;53.20;;;;;;4963395;28;20034;-77
2022/02/13 03:55:19;;;;;;;3.08;0.80;;;7.50;53.20;;;;;;4964310;28;20126;-77
2022/02/13 03:57:46;;;;;;;3.42;0.75;;;7.50;53.30;;;;;;4964324;28;20046;-78
2022/02/13 04:00:13;;;;;;;3.17;0.90;;;7.50;53.40;;;;;;4968191;28;20046;-78
2022/02/13 04:02:40;;;;;;;2.05;0.75;;;7.50;53.30;;;;;;4964712;28;20037;-78
2022/02/13 04:05:07;;;;;;;2.67;0.85;;;7.50;53.30;;;;;;4953861;28;20768;-78
2022/02/13 04:07:33;;;;;;;1.83;0.75;;;7.50;53.40;;;;;;4949799;28;20109;-79
2022/02/13 04:09:59;;;;;;;1.90;0.70;;;7.50;53.40;;;;;;4966313;28;20035;-79
2022/02/13 04:12:25;;;;;;;3.22;0.70;;;7.50;53.40;;;;;;4954227;28;20035;-79
2022/02/13 04:14:52;;;;;;;1.45;0.70;;;7.50;53.40;;;;;;4955861;28;20510;-79
2022/02/13 04:17:18;;;;;;;4.28;0.73;;;7.50;53.40;;;;;;4972175;28;20395;-77
2022/02/13 04:19:45;;;;;;;4.22;0.93;;;7.60;53.40;;;;;;4963898;28;20129;-78
2022/02/13 04:22:12;;;;;;;3.90;0.60;;;7.50;53.40;;;;;;4965317;28;20042;-77
2022/02/13 04:24:38;;;;;;;2.92;0.63;;;7.60;53.40;;;;;;4964564;28;20026;-77
2022/02/13 04:27:05;;;;;;;1.85;0.75;;;7.50;53.40;;;;;;4965759;28;20034;-77
2022/02/13 04:29:31;;;;;;;2.25;0.63;;;7.60;53.40;;;;;;4966113;28;20059;-77
2022/02/13 04:31:57;;;;;;;2.38;0.93;;;7.60;53.50;;;;;;4965393;28;20094;-77
2022/02/13 04:34:23;;;;;;;2.90;0.70;;;7.50;53.40;;;;;;4963995;28;20965;-79
2022/02/13 04:36:49;;;;;;;1.38;0.85;;;7.50;53.40;;;;;;4964260;28;20524;-76
2022/02/13 04:39:15;;;;;;;2.22;0.80;;;7.50;53.40;;;;;;4970194;28;20042;-77
2022/02/13 04:41:41;;;;;;;6.18;1.00;;;7.50;53.40;;;;;;4964764;28;20043;-78
2022/02/13 04:44:07;;;;;;;5.35;1.45;;;7.50;53.50;;;;;;4975945;28;20039;-78
2022/02/13 04:46:33;;;;;;;1.80;0.70;;;7.50;53.40;;;;;;4968672;28;20310;-78
2022/02/13 04:48:59;;;;;;;1.42;0.93;;;7.50;53.40;;;;;;4968522;28;20126;-78
2022/02/13 04:51:25;;;;;;;2.72;0.73;;;7.50;53.40;;;;;;4972293;28;20545;-79
2022/02/13 04:53:51;;;;;;;3.60;0.90;;;7.50;53.40;;;;;;4958272;28;20109;-78
2022/02/13 04:56:17;;;;;;;2.75;0.95;;;7.50;53.40;;;;;;4967515;28;20031;-78
2022/02/13 04:58:43;;;;;;;2.88;0.88;;;7.60;53.40;;;;;;4974375;28;20133;-77
2022/02/13 05:01:09;;;;;;;1.27;0.80;;;7.60;53.40;;;;;;4958513;28;20042;-78
2022/02/13 05:03:36;;;;;;;3.25;1.27;;;7.60;53.40;;;;;;4967896;28;21204;-76
2022/02/13 05:06:02;;;;;;;3.08;1.00;;;7.60;53.40;;;;;;4959267;28;20118;-77
2022/02/13 05:08:28;;;;;;;3.75;0.93;;;7.50;53.40;;;;;;4957521;28;20049;-78
2022/02/13 05:10:54;;;;;;;6.53;1.40;;;7.60;53.40;;;;;;4958140;28;20517;-78
2022/02/13 05:13:20;;;;;;;1.35;0.90;;;7.60;53.40;;;;;;4968125;28;20133;-78
2022/02/13 05:15:46;;;;;;;3.38;1.15;;;7.50;53.40;;;;;;4967816;28;21496;-77
2022/02/13 05:18:12;;;;;;;2.47;0.70;;;7.50;53.40;;;;;;4957487;28;20062;-79
2022/02/13 05:20:38;;;;;;;3.00;1.00;;;7.50;53.40;;;;;;4970601;28;20486;-78
2022/02/13 05:23:04;;;;;;;3.22;1.05;;;7.50;53.40;;;;;;4967767;28;20087;-76
2022/02/13 05:25:30;;;;;;;3.03;1.00;;;7.50;53.50;;;;;;4966946;28;20043;-78
2022/02/13 05:27:55;;;;;;;2.70;0.73;;;7.50;53.50;;;;;;4955239;28;20153;-78
2022/02/13 05:30:21;;;;;;;2.55;0.70;;;7.60;53.50;;;;;;4952634;28;20089;-76
2022/02/13 05:32:47;;;;;;;3.90;0.90;;;7.60;53.50;;;;;;4967048;28;20042;-76
2022/02/13 05:35:13;;;;;;;2.40;0.80;;;7.60;53.50;;;;;;4952981;28;20043;-76
2022/02/13 05:37:39;;;;;;;6.40;1.38;;;7.60;53.50;;;;;;4967773;28;20034;-77
2022/02/13 05:40:07;;;;;;;3.00;1.00;;;7.60;53.50;;;;;;4965791;28;20035;-80
2022/02/13 05:42:33;;;;;;;1.92;0.70;;;7.60;53.50;;;;;;4966170;28;20050;-76
2022/02/13 05:44:59;;;;;;;3.10;0.80;;;7.60;53.50;;;;;;4965596;28;20038;-79
2022/02/13 05:47:25;;;;;;;4.05;0.80;;;7.60;53.50;;;;;;4974057;28;20031;-76
2022/02/13 05:49:51;;;;;;;2.80;0.60;;;7.60;53.50;;;;;;4966147;28;20034;-78
2022/02/13 05:52:17;;;;;;;4.25;0.88;;;7.60;53.50;;;;;;4957000;28;20039;-78
2022/02/13 05:54:43;;;;;;;2.70;0.82;;;7.60;53.40;;;;;;4953608;28;20049;-76
2022/02/13 05:57:09;;;;;;;6.10;1.00;;;7.60;53.40;;;;;;4960413;28;20045;-79
2022/02/13 05:59:35;;;;;;;2.40;0.85;;;7.60;53.40;;;;;;4969174;28;20038;-77
2022/02/13 06:02:01;;;;;;;3.08;0.85;;;7.60;53.40;;;;;;4957682;28;20034;-76
2022/02/13 06:04:26;;;;;;;3.28;0.98;;;7.60;53.40;;;;;;4957490;28;20057;-76
2022/02/13 06:06:54;;;;;;;4.22;1.02;;;7.60;53.40;;;;;;4968886;28;20482;-77
2022/02/13 06:09:21;;;;;;;2.97;0.88;;;7.60;53.40;;;;;;4958481;28;20045;-78
2022/02/13 06:11:48;;;;;;;2.38;0.77;;;7.60;53.40;;;;;;4954366;28;20034;-77
2022/02/13 06:14:14;;;;;;;1.30;0.65;;;7.60;53.30;;;;;;4968070;28;20039;-77
2022/02/13 06:16:40;;;;;;;2.08;0.82;;;7.70;53.40;;;;;;4967013;28;20039;-78
2022/02/13 06:19:07;;;;;;;2.50;0.93;;;7.70;53.40;;;;;;4961852;28;20045;-77
2022/02/13 06:21:33;;;;;;;4.75;0.90;;;7.70;53.40;;;;;;4968179;28;20047;-79
2022/02/13 06:23:59;;;;;;;5.63;1.08;;;7.70;53.30;;;;;;4964970;28;20050;-78
2022/02/13 06:26:25;;;;;;;3.03;0.90;;;7.70;53.30;;;;;;4968749;28;20082;-78
2022/02/13 06:28:52;;;;;;;1.52;1.05;;;7.70;53.30;;;;;;4970998;28;20073;-78
2022/02/13 06:31:18;;;;;;;1.88;0.90;;;7.70;53.30;;;;;;4956281;28;20493;-78
2022/02/13 06:33:46;;;;;;;6.65;1.27;;;7.70;53.30;;;;;;4956476;28;20581;-81
2022/02/13 06:36:12;;;;;;;4.18;1.20;;;7.70;53.90;;;;;;4950915;28;20118;-77
2022/02/13 06:38:39;;;;;;;2.45;0.80;;;7.70;53.30;;;;;;4966182;28;20031;-76
2022/02/13 06:41:05;;;;;;;1.65;0.82;;;7.70;53.30;;;;;;4956946;28;20464;-78
2022/02/13 06:43:33;;;;;;;2.88;1.02;;;7.70;53.30;;;;;;4967329;28;20118;-78
2022/02/13 06:45:59;;;;;;;3.75;0.90;;;7.80;53.40;;;;;;4966894;28;20045;-79
2022/02/13 06:48:30;;;;;;;3.30;0.70;;;7.70;53.40;;;;;;4966794;28;20151;-78
2022/02/13 06:50:56;;;;;;;3.47;1.10;;;7.80;53.40;;;;;;4967581;28;20142;-78
2022/02/13 06:53:23;;;;;;;4.65;1.13;;;7.80;53.50;;;;;;4958623;28;20122;-77
2022/02/13 06:55:50;;;;;;;5.55;1.27;;;7.80;53.40;;;;;;4950036;28;20633;-77
2022/02/13 06:58:16;;;;;;;2.42;0.80;;;7.70;53.40;;;;;;4972771;28;20035;-78
2022/02/13 07:00:43;;;;;;;3.08;1.00;;;7.80;53.50;;;;;;4950028;28;20050;-77
2022/02/13 07:03:10;;;;;;;5.25;1.08;;;7.80;53.50;;;;;;4965770;28;20046;-78
2022/02/13 07:05:37;;;;;;;3.67;0.90;;;7.80;53.40;;;;;;4964958;28;20031;-76
2022/02/13 07:08:03;;;;;;;4.15;0.88;;;7.80;53.40;;;;;;4966595;28;20042;-76
2022/02/13 07:10:29;;;;;;;4.00;1.30;;;7.80;53.40;;;;;;4965521;28;20121;-79
2022/02/13 07:12:55;;;;;;;2.55;0.80;;;7.80;53.40;;;;;;4955609;28;20138;-77
2022/02/13 07:15:21;;;;;;;3.33;1.38;;;7.80;53.40;;;;;;4965823;28;20045;-77
2022/02/13 07:17:47;;;;;;;3.17;1.77;;;7.80;53.50;;;;;;4965042;28;20046;-78
2022/02/13 07:20:14;;;;;;;3.67;1.27;;;7.80;53.40;;;;;;4955116;28;20041;-79
2022/02/13 07:22:40;;;;;;;3.63;1.13;;;7.80;53.50;;;;;;4916681;28;20035;-79
2022/02/13 07:25:06;;;;;;;3.65;0.90;;;7.80;53.50;;;;;;4957235;28;20042;-79
2022/02/13 07:27:34;;;;;;;3.28;1.30;;;7.80;53.50;;;;;;4965401;28;20461;-79
2022/02/13 07:30:00;;;;;;;3.67;1.30;;;7.80;53.50;;;;;;4966410;28;20087;-80
2022/02/13 07:32:26;;;;;;;2.95;1.17;;;7.90;53.60;;;;;;4966032;28;20056;-79
2022/02/13 07:34:51;;;;;;;3.10;1.27;;;7.80;53.60;;;;;;4966058;28;20087;-79
2022/02/13 07:37:18;;;;;;;2.72;1.17;;;7.80;53.50;;;;;;4971860;28;20049;-79
2022/02/13 07:39:44;;;;;;;2.70;1.10;;;7.90;53.60;;;;;;4964826;28;20042;-79
2022/02/13 07:42:10;;;;;;;6.15;1.35;;;7.90;53.50;;;;;;4956641;28;20122;-79
2022/02/13 07:44:37;;;;;;;2.53;1.50;;;7.90;53.50;;;;;;4965505;28;20039;-78
2022/02/13 07:47:04;;;;;;;3.17;1.13;;;7.90;53.60;;;;;;4956834;28;20046;-78
2022/02/13 07:49:30;;;;;;;3.15;1.33;;;7.90;53.60;;;;;;4963423;28;20496;-78
2022/02/13 07:51:56;;;;;;;4.07;1.20;;;7.90;53.60;;;;;;4963669;28;20050;-79
2022/02/13 07:54:22;;;;;;;3.45;1.15;;;7.90;53.60;;;;;;4964707;28;20855;-78
2022/02/13 07:56:48;;;;;;;2.45;1.08;;;7.90;53.70;;;;;;4964550;28;20041;-77
2022/02/13 07:59:14;;;;;;;5.25;1.23;;;7.90;53.70;;;;;;4966936;28;20039;-78
2022/02/13 08:01:40;;;;;;;1.92;1.10;;;7.90;53.70;;;;;;4940175;28;20035;-79
2022/02/13 08:04:06;;;;;;;6.72;1.75;;;7.90;53.60;;;;;;4973003;28;20117;-76
2022/02/13 08:06:32;;;;;;;3.50;1.10;;;7.90;53.60;;;;;;4969665;28;20437;-77
2022/02/13 08:08:58;;;;;;;2.20;0.95;;;7.90;53.70;;;;;;4972830;28;20037;-78
2022/02/13 08:11:24;;;;;;;3.75;1.50;;;7.90;53.70;;;;;;4965189;28;20043;-78
2022/02/13 08:13:50;;;;;;;3.97;1.48;;;8.00;53.80;;;;;;4963918;28;20112;-78
2022/02/13 08:16:18;;;;;;;4.55;1.50;;;8.00;53.80;;;;;;4955126;28;20489;-79
2022/02/13 08:18:44;;;;;;;4.85;1.52;;;8.00;53.90;;;;;;4963643;28;20045;-78
2022/02/13 08:21:10;;;;;;;3.38;1.10;;;8.00;53.80;;;;;;4966190;28;20039;-79
2022/02/13 08:23:36;;;;;;;3.08;0.95;;;8.00;53.90;;;;;;4965284;28;20359;-78
2022/02/13 08:26:03;;;;;;;3.45;1.00;;;8.00;53.90;;;;;;4965732;28;20466;-79
2022/02/13 08:28:31;;;;;;;4.78;1.10;;;8.00;53.90;;;;;;4965359;28;20398;-78
2022/02/13 08:30:58;;;;;;;3.70;1.38;;;8.10;53.90;;;;;;4953071;28;20035;-77
2022/02/13 08:33:24;;;;;;;4.20;1.40;;;8.10;53.90;;;;;;4963221;28;20089;-77
2022/02/13 08:35:50;;;;;;;5.47;1.60;;;8.10;54.50;;;;;;4959942;28;20179;-78
2022/02/13 08:38:16;;;;;;;2.97;1.58;;;8.20;55.90;;;;;;4964195;28;20068;-77
2022/02/13 08:40:41;;;;;;;4.18;1.20;;;8.20;56.20;;;;;;4963043;28;20083;-82
2022/02/13 08:43:08;;;;;;;4.25;1.30;;;8.20;56.00;;;;;;4968441;28;20043;-81
2022/02/13 08:45:36;;;;;;;4.32;1.40;;;8.20;55.60;;;;;;4963736;28;20042;-84
2022/02/13 08:48:02;;;;;;;2.35;0.88;;;8.30;55.40;;;;;;4962995;28;20066;-84
2022/02/13 08:50:28;;;;;;;4.38;1.10;;;8.30;55.50;;;;;;4964036;28;20124;-81
2022/02/13 08:52:54;;;;;;;2.78;1.20;;;8.40;55.90;;;;;;4955031;28;20058;-82
2022/02/13 08:55:20;;;;;;;4.32;1.13;;;8.40;56.30;;;;;;4953107;28;20137;-83
2022/02/13 08:57:48;;;;;;;6.00;1.10;;;8.50;57.00;;;;;;4936715;28;20058;-81
2022/02/13 09:00:15;;;;;;;4.32;1.10;;;8.50;57.30;;;;;;4954211;28;20050;-85
2022/02/13 09:02:42;;;;;;;2.65;0.95;;;8.60;57.50;;;;;;4964568;28;20030;-82
2022/02/13 09:05:09;;;;;;;2.70;0.88;;;8.60;57.70;;;;;;4950078;28;20050;-80
2022/02/13 09:07:38;;;;;;;4.50;1.08;;;8.60;58.00;;;;;;4971698;28;20047;-78
2022/02/13 09:10:06;;;;;;;3.65;1.10;;;8.60;58.10;;;;;;4953472;28;20597;-81
2022/02/13 09:12:32;;;;;;;4.80;1.30;;;8.70;58.20;;;;;;4963084;28;20038;-80
2022/02/13 09:14:59;;;;;;;4.80;1.10;;;8.70;58.40;;;;;;4962108;28;20050;-80
2022/02/13 09:17:25;;;;;;;4.85;1.30;;;8.70;58.60;;;;;;4963859;28;20418;-79
2022/02/13 09:19:51;;;;;;;5.45;1.30;;;8.80;59.00;;;;;;4962281;28;20053;-80
2022/02/13 09:22:17;;;;;;;5.18;1.02;;;8.80;59.40;;;;;;4955086;28;20039;-79
2022/02/13 09:24:43;;;;;;;4.28;1.42;;;8.90;59.90;;;;;;4939154;28;20046;-80
2022/02/13 09:27:10;;;;;;;5.35;1.08;;;8.90;60.00;;;;;;4954902;28;20636;-81
2022/02/13 09:29:36;;;;;;;7.93;1.42;;;9.00;60.30;;;;;;4967756;28;20061;-80
2022/02/13 09:32:03;;;;;;;4.72;1.00;;;9.00;60.40;;;;;;4960165;28;20023;-80
2022/02/13 09:34:32;;;;;;;2.63;0.68;;;9.00;60.30;;;;;;4956776;28;20035;-79
2022/02/13 09:36:59;;;;;;;3.53;0.90;;;9.10;60.30;;;;;;4968632;28;20042;-78
2022/02/13 09:39:25;;;;;;;6.03;1.55;;;9.10;60.30;;;;;;4956841;28;20203;-81
2022/02/13 09:41:52;;;;;;;4.38;1.02;;;9.10;60.30;;;;;;4966647;28;20470;-80
2022/02/13 09:44:18;;;;;;;3.90;0.85;;;9.10;60.30;;;;;;4951408;28;20121;-81
2022/02/13 09:46:45;;;;;;;3.05;1.13;;;9.10;60.50;;;;;;4965303;28;20306;-82
2022/02/13 09:49:12;;;;;;;4.75;0.98;;;9.20;60.60;;;;;;4967677;28;20046;-79
2022/02/13 09:51:38;;;;;;;2.17;1.10;;;9.20;60.60;;;;;;4966976;28;20035;-79
2022/02/13 09:54:07;;;;;;;5.40;1.42;;;9.20;60.60;;;;;;4965809;28;20488;-80
2022/02/13 09:56:34;;;;;;;2.70;1.27;;;9.20;60.70;;;;;;4967871;28;20089;-80
2022/02/13 09:59:01;;;;;;;4.80;0.90;;;9.30;60.70;;;;;;4956898;28;20525;-80
2022/02/13 10:01:38;;;;;;;4.07;1.05;;;9.30;60.60;;;;;;4966585;28;20617;-80
2022/02/13 10:04:06;;;;;;;2.08;1.00;;;9.30;60.70;;;;;;4966976;28;20043;-80
2022/02/13 10:06:36;;;;;;;4.32;1.33;;;9.40;60.90;;;;;;4967151;28;20206;-80
2022/02/13 10:09:02;;;;;;;5.05;1.00;;;9.40;60.80;;;;;;4964960;28;20129;-80
2022/02/13 10:11:31;;;;;;;2.35;0.70;;;9.40;60.80;;;;;;4966056;28;20540;-80
2022/02/13 10:14:07;;;;;;;2.42;0.90;;;9.40;60.90;;;;;;4957933;28;20102;-79
2022/02/13 10:16:34;;;;;;;;;;;9.50;60.90;;;;;;4954164;28;20097;-78
2022/02/13 10:19:09;;;;;;;2.33;0.90;;;9.50;60.90;;;;;;4954960;28;19964;-80
2022/02/13 10:21:39;;;;;;;2.88;0.80;;;9.50;61.00;;;;;;4966882;28;20045;-80
2022/02/13 10:24:22;;;;;;;2.42;1.00;;;9.50;61.10;;;;;;4965022;28;20046;-80
2022/02/13 10:27:05;;;;;;;2.33;0.95;;;9.50;61.10;;;;;;4964487;28;20039;-80
2022/02/13 10:29:34;;;;;;;1.38;0.60;;;9.50;61.10;;;;;;4954207;28;20066;-80
2022/02/13 10:32:28;;;;;;;2.33;0.90;;;9.50;61.00;;;;;;4965957;28;20114;-80
2022/02/13 10:35:05;;;;;;;1.10;0.85;;;9.60;60.90;;;;;;4966061;28;20125;-80
2022/02/13 10:37:45;;;;;;;2.05;0.95;;;9.60;61.00;;;;;;4956278;28;20039;-80
2022/02/13 10:40:16;;;;;;;1.85;0.90;;;9.60;60.80;;;;;;4966185;28;20126;-79
2022/02/13 10:42:43;;;;;;;2.15;0.90;;;9.60;61.00;;;;;;4965370;28;20094;-79
2022/02/13 10:45:25;;;;;;;2.58;0.82;;;9.70;61.00;;;;;;4949570;28;20097;-78
2022/02/13 10:48:00;;;;;;;2.80;0.70;;;9.70;61.10;;;;;;4940443;28;20125;-79
2022/02/13 10:50:31;;;;;;;2.13;1.00;;;9.70;61.10;;;;;;4966832;28;20046;-78
2022/02/13 10:52:59;;;;;;;2.08;0.70;;;9.70;60.90;;;;;;4959260;28;20051;-77
2022/02/13 10:55:26;;;;;;;2.03;0.70;;;9.70;60.90;;;;;;4964688;28;20506;-78
2022/02/13 10:57:52;;;;;;;1.95;0.75;;;9.80;60.80;;;;;;4969977;28;20093;-79
2022/02/13 11:00:18;;;;;;;1.42;0.60;;;9.80;60.80;;;;;;4949860;28;20418;-80
2022/02/13 11:02:46;;;;;;;1.80;0.68;;;9.80;60.60;;;;;;4967349;28;20520;-79
2022/02/13 11:05:12;;;;;;;1.15;0.75;;;9.80;60.60;;;;;;4970146;28;20039;-79
2022/02/13 11:07:45;;;;;;;3.60;1.00;;;9.90;60.60;;;;;;4974750;28;20027;-79
2022/02/13 11:10:19;;;;;;;1.67;0.75;;;9.80;60.50;;;;;;4971380;28;20042;-77
2022/02/13 11:12:49;;;;;;;4.30;0.80;;;9.90;60.40;;;;;;4981193;28;20049;-77
2022/02/13 11:15:23;;;;;;;4.35;0.82;;;9.90;60.40;;;;;;4968415;28;20038;-77
2022/02/13 11:17:51;;;;;;;3.42;0.85;;;9.90;60.40;;;;;;4969266;28;20038;-76
2022/02/13 11:20:18;;;;;;;2.95;0.73;;;9.90;60.20;;;;;;4965385;28;20064;-75
2022/02/13 11:22:53;;;;;;;3.20;0.80;;;9.90;60.30;;;;;;4969927;28;20126;-77
2022/02/13 11:25:48;;;;;;;3.47;0.93;;;9.90;60.20;;;;;;4938422;28;20418;-77
2022/02/13 11:28:14;;;;;;;3.70;1.42;;;10.00;60.30;;;;;;4965609;28;20054;-77
2022/02/13 11:30:44;;;;;;;4.40;1.08;;;10.00;60.30;;;;;;4966866;28;20051;-77
2022/02/13 11:33:23;;;;;;;3.90;1.10;;;10.00;60.20;;;;;;4964063;28;20042;-77
2022/02/13 11:36:03;;;;;;;3.08;1.05;;;10.00;60.20;;;;;;4964355;28;20410;-76
2022/02/13 11:38:38;;;;;;;3.40;1.23;;;10.00;60.20;;;;;;4964335;28;20645;-77
2022/02/13 11:41:05;;;;;;;4.97;1.00;;;10.00;60.20;;;;;;4971928;28;20039;-78
2022/02/13 11:43:49;;;;;;;4.32;0.80;;;10.10;60.30;;;;;;4940825;28;20446;-78
2022/02/13 11:46:30;;;;;;;1.20;0.90;;;10.00;60.20;;;;;;4956844;28;20038;-76
2022/02/13 11:48:58;;;;;;;2.58;1.05;;;10.10;60.20;;;;;;4960867;28;20038;-77
2022/02/13 11:51:45;;;;;;;3.15;1.23;;;10.10;60.20;;;;;;4963223;28;20553;-77
2022/02/13 11:54:38;;;;;;;2.63;0.98;;;10.10;60.20;;;;;;4964872;28;20421;-78
2022/02/13 11:57:05;;;;;;;2.50;1.23;;;10.20;60.20;;;;;;4958915;28;20391;-77
2022/02/13 11:59:56;;;;;;;2.63;1.13;;;10.10;60.10;;;;;;4963720;28;20035;-76
2022/02/13 12:02:31;;;;;;;2.83;1.00;;;10.20;60.20;;;;;;4970386;28;20039;-78
2022/02/13 12:05:06;;;;;;;2.38;1.45;;;10.20;60.20;;;;;;4964398;28;20512;-76
2022/02/13 12:07:38;;;;;;;3.65;1.05;;;10.20;60.20;;;;;;4969457;28;20039;-77
2022/02/13 12:10:19;;;;;;;2.97;0.98;;;10.20;60.10;;;;;;4963091;28;20518;-77
2022/02/13 12:12:45;;;;;;;3.75;1.13;;;10.20;60.10;;;;;;4952539;28;20034;-76
2022/02/13 12:15:15;;;;;;;2.30;0.95;;;10.20;60.10;;;;;;4966437;28;20070;-76
2022/02/13 12:17:41;;;;;;;3.17;1.20;;;10.20;60.10;;;;;;4956271;28;20124;-75
2022/02/13 12:20:10;;;;;;;2.80;1.13;;;10.30;60.10;;;;;;4956116;28;20313;-76
2022/02/13 12:22:37;;;;;;;1.88;1.23;;;10.30;60.20;;;;;;4956623;28;20469;-77
2022/02/13 12:25:06;;;;;;;3.67;1.45;;;10.20;60.20;;;;;;4969690;28;20050;-76
2022/02/13 12:27:33;;;;;;;2.53;1.45;;;10.30;60.20;;;;;;4964246;28;20427;-76
2022/02/13 12:30:09;;;;;;;2.72;1.20;;;10.30;60.20;;;;;;4956089;28;20043;-77
2022/02/13 12:32:39;;;;;;;2.65;1.10;;;10.30;60.10;;;;;;4954778;28;20050;-76
2022/02/13 12:35:13;;;;;;;2.53;1.45;;;10.30;60.00;;;;;;4964997;28;20045;-80
2022/02/13 12:37:41;;;;;;;2.88;1.42;;;10.30;59.60;;;;;;4930866;28;20035;-85
2022/02/13 12:40:11;;;;;;;3.60;1.15;;;10.30;58.70;;;;;;4956508;28;20038;-87
2022/02/13 12:42:40;;;;;;;3.17;1.63;;;10.30;57.80;;;;;;4958403;28;20129;-83
2022/02/13 12:45:12;;;;;;;5.22;1.70;;;10.30;57.20;;;;;;4964861;28;20034;-83
2022/02/13 12:47:43;;;;;;;2.73;1.90;;;10.30;56.70;;;;;;4965077;28;20039;-85
2022/02/13 12:50:16;;;;;;;4.38;1.80;;;10.20;56.40;;;;;;4963499;28;20121;-86
2022/02/13 12:52:43;;;;;;;3.38;1.35;;;10.20;56.30;;;;;;4955271;28;20041;-89
2022/02/13 12:55:11;;;;;;;4.57;1.85;;;10.20;55.90;;;;;;4950408;28;20062;-81
2022/02/13 12:57:42;;;;;;;3.75;1.33;;;10.20;56.20;;;;;;4952441;28;20038;-80